createdAt,value
2018-06-21T00:00:09.895Z,19.20
2018-06-21T00:03:13.013Z,19.20
2018-06-21T00:06:16.117Z,19.20
2018-06-21T00:09:19.185Z,19.20
2018-06-21T00:12:22.265Z,19.10
2018-06-21T00:15:25.382Z,19.10
2018-06-21T00:18:28.525Z,19.10
2018-06-21T00:21:31.546Z,19.00
2018-06-21T00:24:34.622Z,19.10
2018-06-21T00:27:37.705Z,19.10
2018-06-21T00:39:49.513Z,19.20
2018-06-21T00:42:52.597Z,19.20
2018-06-21T00:45:55.682Z,19.20
2018-06-21T00:48:58.784Z,19.30
2018-06-21T00:52:01.894Z,19.30
2018-06-21T00:55:05.805Z,19.40
2018-06-21T00:58:08.930Z,19.30
2018-06-21T01:01:12.277Z,19.30
2018-06-21T01:04:15.393Z,19.30
2018-06-21T01:07:18.461Z,19.20
2018-06-21T01:10:21.545Z,19.10
2018-06-21T01:13:24.621Z,19.10
2018-06-21T01:16:27.693Z,19.10
2018-06-21T01:19:30.762Z,19.10
2018-06-21T01:25:36.716Z,19.10
2018-06-21T01:28:39.828Z,19.10
2018-06-21T01:34:45.792Z,19.10
2018-06-21T01:37:48.854Z,19.00
2018-06-21T01:40:51.915Z,19.00
2018-06-21T01:43:55.005Z,18.90
2018-06-21T01:46:58.081Z,18.90
2018-06-21T01:50:01.174Z,18.90
2018-06-21T01:53:04.316Z,18.80
2018-06-21T01:56:07.382Z,18.90
2018-06-21T01:59:10.577Z,18.90
2018-06-21T02:02:13.657Z,18.90
2018-06-21T02:05:16.768Z,18.90
2018-06-21T02:08:19.845Z,18.90
2018-06-21T02:11:22.917Z,18.80
2018-06-21T02:14:26.013Z,18.80
2018-06-21T02:17:29.113Z,18.70
2018-06-21T02:20:32.221Z,18.80
2018-06-21T02:23:35.313Z,18.70
2018-06-21T02:26:38.402Z,18.70
2018-06-21T02:29:41.482Z,18.60
2018-06-21T02:32:44.572Z,18.50
2018-06-21T02:35:47.675Z,18.50
2018-06-21T02:38:50.759Z,18.50
2018-06-21T02:41:53.813Z,18.40
2018-06-21T02:47:59.757Z,18.30
2018-06-21T02:51:02.845Z,18.30
2018-06-21T02:54:06.039Z,18.30
2018-06-21T02:57:09.129Z,18.30
2018-06-21T03:00:12.212Z,18.20
2018-06-21T03:03:15.274Z,18.20
2018-06-21T03:06:18.357Z,18.20
2018-06-21T03:12:24.709Z,18.10
2018-06-21T03:15:27.801Z,18.10
2018-06-21T03:18:30.876Z,18.10
2018-06-21T03:21:33.973Z,18.10
2018-06-21T03:24:37.073Z,18.10
2018-06-21T03:27:40.158Z,18.10
2018-06-21T03:30:43.249Z,18.10
2018-06-21T03:33:46.357Z,18.20
2018-06-21T03:36:49.469Z,18.20
2018-06-21T03:42:55.458Z,18.30
2018-06-21T03:45:58.551Z,18.30
2018-06-21T03:49:01.650Z,18.40
2018-06-21T03:52:05.046Z,18.50
2018-06-21T03:55:08.138Z,18.50
2018-06-21T03:58:11.209Z,18.50
2018-06-21T04:04:17.214Z,18.40
2018-06-21T04:07:20.271Z,18.40
2018-06-21T04:13:26.254Z,18.60
2018-06-21T04:19:32.213Z,18.90
2018-06-21T04:22:35.281Z,19.10
2018-06-21T04:25:38.361Z,19.30
2018-06-21T04:28:42.321Z,19.50
2018-06-21T04:34:48.332Z,19.90
2018-06-21T04:37:51.423Z,20.00
2018-06-21T04:40:54.521Z,20.10
2018-06-21T04:43:57.603Z,20.20
2018-06-21T04:47:00.749Z,20.20
2018-06-21T04:50:03.845Z,20.20
2018-06-21T04:53:06.949Z,20.10
2018-06-21T04:56:10.065Z,20.10
2018-06-21T04:59:13.158Z,20.20
2018-06-21T05:02:16.278Z,20.30
2018-06-21T05:05:19.358Z,20.40
2018-06-21T05:08:22.454Z,20.70
2018-06-21T05:11:25.581Z,21.00
2018-06-21T05:14:28.694Z,21.20
2018-06-21T05:17:31.781Z,22.40
2018-06-21T05:23:37.725Z,25.20
2018-06-21T05:26:40.839Z,25.00
2018-06-21T05:29:43.903Z,24.30
2018-06-21T05:32:47.016Z,23.50
2018-06-21T05:35:50.104Z,22.70
2018-06-21T05:38:53.184Z,22.10
2018-06-21T05:41:56.313Z,21.70
2018-06-21T05:48:03.321Z,21.30
2018-06-21T05:54:09.306Z,23.20
2018-06-21T06:00:15.638Z,25.90
2018-06-21T06:03:18.702Z,26.20
2018-06-21T06:06:21.814Z,27.20
2018-06-21T06:09:31.339Z,27.90
2018-06-21T06:12:35.124Z,27.70
2018-06-21T06:15:38.831Z,28.50
2018-06-21T06:18:41.937Z,28.90
2018-06-21T06:21:45.028Z,28.70
2018-06-21T06:24:48.117Z,28.80
2018-06-21T06:27:51.209Z,28.30
2018-06-21T06:30:54.277Z,28.50
2018-06-21T06:37:00.212Z,28.70
2018-06-21T06:40:03.338Z,29.60
2018-06-21T06:43:06.405Z,29.50
2018-06-21T06:46:09.519Z,28.80
2018-06-21T06:49:12.941Z,28.30
2018-06-21T06:52:16.055Z,27.60
2018-06-21T06:55:19.133Z,27.80
2018-06-21T06:58:22.243Z,28.40
2018-06-21T07:01:25.318Z,29.10
2018-06-21T07:04:28.414Z,28.90
2018-06-21T07:07:31.861Z,28.40
2018-06-21T07:10:34.918Z,27.40
2018-06-21T07:13:38.009Z,26.80
2018-06-21T07:16:41.093Z,26.00
2018-06-21T07:19:44.188Z,25.80
2018-06-21T07:22:47.312Z,25.60
2018-06-21T07:25:50.820Z,25.80
2018-06-21T07:28:53.898Z,26.30
2018-06-21T07:35:40.001Z,27.60
2018-06-21T07:38:43.105Z,28.10
2018-06-21T07:41:46.182Z,29.60
2018-06-21T07:44:49.250Z,30.10
2018-06-21T07:47:52.345Z,29.60
2018-06-21T07:50:55.485Z,29.50
2018-06-21T07:53:58.561Z,30.00
2018-06-21T07:57:01.659Z,30.90
2018-06-21T08:00:04.765Z,31.70
2018-06-21T08:03:07.854Z,31.00
2018-06-21T08:06:10.936Z,29.50
2018-06-21T08:09:14.238Z,28.60
2018-06-21T08:12:17.330Z,27.80
2018-06-21T08:15:20.396Z,27.60
2018-06-21T08:18:23.474Z,28.20
2018-06-21T08:21:26.565Z,28.00
2018-06-21T08:24:29.633Z,26.80
2018-06-21T08:27:32.705Z,25.70
2018-06-21T08:33:38.707Z,24.40
2018-06-21T08:36:41.794Z,24.00
2018-06-21T08:39:50.804Z,23.60
2018-06-21T08:42:54.277Z,23.10
2018-06-21T08:45:57.389Z,22.70
2018-06-21T08:49:00.449Z,22.50
2018-06-21T08:52:03.562Z,22.20
2018-06-21T08:55:06.618Z,21.90
2018-06-21T08:58:09.697Z,21.70
2018-06-21T09:01:12.766Z,21.50
2018-06-21T09:07:18.701Z,20.50
2018-06-21T09:10:21.801Z,19.90
2018-06-21T09:13:30.877Z,19.30
2018-06-21T09:16:33.974Z,18.70
2018-06-21T09:19:37.101Z,18.40
2018-06-21T09:22:40.181Z,18.30
2018-06-21T09:25:43.270Z,18.10
2018-06-21T09:28:46.361Z,17.90
2018-06-21T09:31:49.457Z,17.80
2018-06-21T09:34:52.889Z,17.70
2018-06-21T09:38:03.565Z,17.50
2018-06-21T09:41:12.590Z,17.30
2018-06-21T09:47:32.029Z,17.10
2018-06-21T09:50:35.115Z,17.10
2018-06-21T09:53:38.185Z,17.10
2018-06-21T09:56:41.265Z,17.00
2018-06-21T09:59:44.342Z,16.90
2018-06-21T10:02:47.408Z,16.80
2018-06-21T10:05:50.512Z,16.80
2018-06-21T10:08:53.610Z,16.80
2018-06-21T10:11:56.690Z,16.70
2018-06-21T10:14:59.798Z,16.60
2018-06-21T10:18:02.877Z,16.60
2018-06-21T10:21:05.975Z,16.70
2018-06-21T10:24:09.064Z,16.80
2018-06-21T10:27:12.157Z,16.80
2018-06-21T10:30:15.238Z,17.00
2018-06-21T10:33:18.338Z,17.00
2018-06-21T10:36:21.393Z,17.00
2018-06-21T10:39:24.520Z,17.00
2018-06-21T10:42:27.596Z,17.00
2018-06-21T10:45:30.673Z,16.90
2018-06-21T10:48:33.752Z,16.80
2018-06-21T10:51:37.197Z,16.80
2018-06-21T10:54:40.393Z,16.90
2018-06-21T10:57:43.457Z,16.90
2018-06-21T11:00:46.533Z,17.00
2018-06-21T11:03:49.603Z,17.00
2018-06-21T11:09:55.652Z,17.50
2018-06-21T11:12:58.713Z,17.70
2018-06-21T11:16:01.795Z,17.80
2018-06-21T11:19:04.993Z,18.10
2018-06-21T11:22:08.071Z,18.40
2018-06-21T11:25:11.149Z,18.50
2018-06-21T11:28:14.216Z,18.60
2018-06-21T11:31:17.293Z,18.60
2018-06-21T11:34:20.431Z,18.70
2018-06-21T11:37:23.489Z,18.50
2018-06-21T11:40:26.669Z,18.60
2018-06-21T11:43:29.730Z,18.70
2018-06-21T11:46:32.822Z,18.70
2018-06-21T11:49:35.913Z,18.80
2018-06-21T11:52:38.998Z,18.90
2018-06-21T11:55:42.117Z,19.00
2018-06-21T11:58:45.189Z,18.90
2018-06-21T12:01:48.307Z,18.90
2018-06-21T12:04:51.334Z,18.90
2018-06-21T12:07:54.409Z,19.10
2018-06-21T12:10:57.477Z,19.10
2018-06-21T12:14:00.567Z,19.10
2018-06-21T12:17:03.649Z,18.90
2018-06-21T12:20:06.740Z,18.20
2018-06-21T12:23:09.804Z,17.70
2018-06-21T12:26:12.981Z,17.30
2018-06-21T12:29:15.961Z,17.10
2018-06-21T12:32:19.113Z,17.00
2018-06-21T12:35:22.214Z,17.10
2018-06-21T12:38:25.274Z,17.40
2018-06-21T12:41:28.361Z,17.60
2018-06-21T12:44:31.431Z,17.90
2018-06-21T12:47:34.493Z,18.10
2018-06-21T12:53:40.526Z,18.10
2018-06-21T12:56:43.618Z,18.10
2018-06-21T12:59:46.692Z,18.30
2018-06-21T13:02:49.888Z,18.40
2018-06-21T13:05:52.968Z,18.40
2018-06-21T13:09:07.543Z,18.40
2018-06-21T13:12:26.253Z,18.60
2018-06-21T13:15:29.349Z,18.70
2018-06-21T13:18:32.476Z,18.70
2018-06-21T13:21:35.590Z,18.80
2018-06-21T13:24:38.652Z,19.00
2018-06-21T13:27:41.747Z,19.20
2018-06-21T13:30:44.824Z,19.10
2018-06-21T13:33:48.166Z,19.00
2018-06-21T13:36:51.261Z,18.90
2018-06-21T13:39:54.334Z,18.80
2018-06-21T13:42:57.433Z,18.70
2018-06-21T13:46:00.509Z,18.40
2018-06-21T13:49:03.598Z,18.10
2018-06-21T13:52:06.685Z,18.00
2018-06-21T13:55:11.819Z,18.10
2018-06-21T13:58:14.925Z,18.00
2018-06-21T14:01:18.013Z,17.80
2018-06-21T14:04:21.299Z,17.60
2018-06-21T14:07:24.436Z,17.50
2018-06-21T14:13:30.731Z,17.40
2018-06-21T14:16:33.846Z,17.50
2018-06-21T14:19:48.238Z,17.70
2018-06-21T14:22:51.341Z,17.70
2018-06-21T14:25:54.441Z,17.70
2018-06-21T14:28:57.527Z,17.70
2018-06-21T14:32:00.649Z,17.70
2018-06-21T14:35:03.725Z,17.60
2018-06-21T14:38:06.825Z,17.60
2018-06-21T14:41:09.894Z,17.60
2018-06-21T14:44:13.013Z,17.70
2018-06-21T14:47:16.094Z,17.60
2018-06-21T14:50:19.178Z,17.60
2018-06-21T14:53:22.282Z,17.70
2018-06-21T14:56:25.349Z,17.50
2018-06-21T14:59:28.453Z,17.40
2018-06-21T15:02:31.485Z,17.40
2018-06-21T15:08:37.441Z,17.30
2018-06-21T15:11:40.538Z,17.40
2018-06-21T15:14:43.630Z,17.40
2018-06-21T15:17:46.721Z,17.30
2018-06-21T15:20:49.824Z,17.40
2018-06-21T15:26:55.823Z,17.10
2018-06-21T15:29:58.909Z,17.10
2018-06-21T15:33:01.993Z,17.30
2018-06-21T15:36:05.105Z,17.10
2018-06-21T15:39:24.001Z,16.90
2018-06-21T15:42:27.080Z,16.70
2018-06-21T15:45:30.245Z,16.50
2018-06-21T15:48:33.249Z,16.40
2018-06-21T15:51:36.360Z,16.40
2018-06-21T15:54:39.422Z,16.40
2018-06-21T15:57:42.522Z,16.50
2018-06-21T16:00:45.625Z,16.50
2018-06-21T16:03:48.706Z,16.50
2018-06-21T16:06:51.810Z,16.40
2018-06-21T16:09:55.126Z,16.30
2018-06-21T16:12:58.223Z,16.10
2018-06-21T16:16:01.294Z,16.30
2018-06-21T16:19:04.385Z,16.50
2018-06-21T16:22:07.449Z,16.70
2018-06-21T16:25:10.547Z,17.00
2018-06-21T16:28:13.648Z,17.20
2018-06-21T16:31:16.735Z,17.30
2018-06-21T16:34:19.824Z,17.10
2018-06-21T16:37:22.923Z,16.90
2018-06-21T16:40:26.257Z,16.80
2018-06-21T16:43:29.330Z,16.70
2018-06-21T16:46:32.404Z,16.70
2018-06-21T16:49:35.475Z,16.80
2018-06-21T16:52:38.546Z,16.70
2018-06-21T16:55:41.621Z,16.50
2018-06-21T16:58:44.686Z,16.40
2018-06-21T17:01:47.768Z,16.40
2018-06-21T17:04:50.868Z,16.40
2018-06-21T17:07:53.929Z,16.30
2018-06-21T17:10:57.017Z,16.30
2018-06-21T17:14:00.100Z,16.20
2018-06-21T17:17:03.179Z,16.10
2018-06-21T17:26:12.214Z,15.90
2018-06-21T17:29:15.305Z,15.80
2018-06-21T17:32:18.397Z,15.80
2018-06-21T17:35:21.474Z,15.70
2018-06-21T17:38:24.568Z,15.60
2018-06-21T17:41:27.637Z,15.50
2018-06-21T17:44:30.717Z,15.40
2018-06-21T17:47:33.808Z,15.30
2018-06-21T17:50:36.921Z,15.30
2018-06-21T17:53:40.000Z,15.30
2018-06-21T17:56:43.061Z,15.30
2018-06-21T18:05:52.174Z,15.10
2018-06-21T18:08:55.239Z,15.20
2018-06-21T18:11:58.336Z,15.20
2018-06-21T18:15:01.440Z,15.20
2018-06-21T18:18:04.514Z,15.10
2018-06-21T18:21:07.745Z,15.00
2018-06-21T18:24:10.805Z,15.00
2018-06-21T18:27:13.981Z,14.80
2018-06-21T18:30:17.074Z,14.80
2018-06-21T18:33:25.957Z,14.70
2018-06-21T18:36:29.045Z,14.60
2018-06-21T18:39:32.130Z,14.40
2018-06-21T18:42:35.212Z,14.30
2018-06-21T18:45:38.289Z,14.30
2018-06-21T18:48:41.393Z,14.20
2018-06-21T18:51:44.477Z,14.20
2018-06-21T18:54:47.588Z,14.10
2018-06-21T18:57:50.654Z,14.00
2018-06-21T19:00:53.745Z,13.90
2018-06-21T19:03:57.290Z,13.80
2018-06-21T19:07:05.874Z,13.80
2018-06-21T19:10:14.549Z,13.70
2018-06-21T19:16:20.494Z,13.40
2018-06-21T19:19:23.641Z,13.40
2018-06-21T19:22:26.785Z,13.30
2018-06-21T19:25:29.877Z,13.20
2018-06-21T19:28:32.933Z,13.10
2018-06-21T19:31:36.025Z,13.10
2018-06-21T19:34:39.105Z,13.00
2018-06-21T19:37:42.185Z,13.00
2018-06-21T19:40:45.250Z,13.10
2018-06-21T19:43:48.329Z,13.20
2018-06-21T19:46:51.429Z,13.20
2018-06-21T19:49:54.516Z,13.20
2018-06-21T19:52:57.579Z,13.10
2018-06-21T19:56:00.674Z,13.10
2018-06-21T19:59:03.741Z,13.00
2018-06-21T20:02:06.817Z,12.90
2018-06-21T20:05:10.694Z,12.80
2018-06-21T20:08:13.756Z,12.70
2018-06-21T20:11:22.427Z,12.60
2018-06-21T20:14:25.507Z,12.50
2018-06-21T20:20:33.345Z,12.30
2018-06-21T20:26:40.006Z,12.20
2018-06-21T20:29:43.077Z,12.10
2018-06-21T20:32:46.165Z,12.00
2018-06-21T20:35:49.229Z,11.90
2018-06-21T20:38:52.324Z,11.90
2018-06-21T20:41:55.397Z,11.80
2018-06-21T20:44:58.494Z,11.70
2018-06-21T20:48:01.558Z,11.60
2018-06-21T20:51:04.708Z,11.50
2018-06-21T20:54:07.771Z,11.60
2018-06-21T21:00:13.705Z,11.60
2018-06-21T21:03:16.801Z,11.70
2018-06-21T21:06:19.877Z,11.70
2018-06-21T21:09:22.946Z,11.70
2018-06-21T21:12:26.186Z,11.70
2018-06-21T21:15:29.387Z,11.70
2018-06-21T21:21:35.340Z,11.60
2018-06-21T21:24:38.423Z,11.60
2018-06-21T21:27:41.494Z,11.50
2018-06-21T21:30:44.593Z,11.50
2018-06-21T21:33:47.689Z,11.40
2018-06-21T21:36:50.785Z,11.40
2018-06-21T21:39:57.505Z,11.30
2018-06-21T21:46:03.456Z,11.10
2018-06-21T21:49:06.541Z,11.10
2018-06-21T21:52:09.624Z,11.00
2018-06-21T21:55:12.689Z,11.00
2018-06-21T21:58:15.945Z,10.90
2018-06-21T22:01:18.953Z,10.80
2018-06-21T22:04:22.018Z,10.80
2018-06-21T22:07:25.129Z,10.70
2018-06-21T22:10:28.213Z,10.60
2018-06-21T22:16:35.705Z,10.50
2018-06-21T22:19:38.813Z,10.40
2018-06-21T22:25:44.786Z,10.30
2018-06-21T22:28:47.873Z,10.30
2018-06-21T22:31:53.322Z,10.20
2018-06-21T22:34:56.398Z,10.10
2018-06-21T22:37:59.521Z,10.10
2018-06-21T22:41:02.573Z,10.10
2018-06-21T22:44:05.814Z,10.00
2018-06-21T22:47:08.922Z,10.00
2018-06-21T22:53:14.809Z,10.00
2018-06-21T22:56:17.889Z,9.90
2018-06-21T22:59:20.981Z,9.80
2018-06-21T23:02:24.074Z,9.80
2018-06-21T23:05:27.195Z,9.70
2018-06-21T23:11:33.106Z,9.70
2018-06-21T23:14:36.441Z,9.70
2018-06-21T23:17:39.473Z,9.70
2018-06-21T23:20:42.525Z,9.70
2018-06-21T23:23:45.610Z,9.70
2018-06-21T23:26:48.721Z,9.80
2018-06-21T23:29:51.796Z,9.80
2018-06-21T23:32:54.911Z,9.90
2018-06-21T23:35:58.121Z,10.00
2018-06-21T23:39:01.205Z,10.00
2018-06-21T23:42:04.281Z,10.00
2018-06-21T23:45:07.365Z,10.00
2018-06-21T23:48:10.466Z,10.00
2018-06-21T23:51:13.530Z,10.00
2018-06-21T23:54:16.652Z,10.00
2018-06-21T23:57:19.886Z,10.00
